»·PEaware :: N321KL KFUL-KGCN

N321KL :: KFUL-KGCN

FLIGHT INFORMATION

Flight Status: Arrived
Operator: Privately registered:
United States
More flights under this callsign
Pilot: Rafael F. (17538)
Aircraft: ECLIPSE 500
(EA50)
More flights by this aircraft type
Origin: KFUL Fullerton Mun
United States
Destination: KGCN Grand Canyon Natl Park
United States
More flights between these airports :: More routes between these airports
Route: KFUL KGCN
File this flight plan on PilotEdge
Remarks:
Altitude:
(Current/Filed)
11,500ft
Speed:
(Current/Filed)
250kts
Departed: 11-Jul-18 01:42 PM
Arrived: 11-Jul-18 02:55 PM
Distance/Time
Traveled:
313nm/1:13
Distance/Time
To Go:
Arrived

Flight Plot

Page will automatically refresh every two minutes.

Flight plan parsing failed; only flown route is shown


Map Options




Map Legend


Flown Route
Filed Route
Departure Airport
Arrival Airport
Navaid (VOR, NDB)
Fix

Horizontal Profiles

Position Reports

Time Latitude Longitude Heading Altitude Ground
Speed
11-Jul-18 13:09 33.871165 -117.978163 259 92ft 0kts
11-Jul-18 13:10 33.871165 -117.978163 259 92ft 0kts
11-Jul-18 13:11 33.871165 -117.978163 259 92ft 0kts
11-Jul-18 13:12 33.871165 -117.978163 259 92ft 0kts
11-Jul-18 13:13 33.871165 -117.978163 259 92ft 0kts
11-Jul-18 13:14 33.871165 -117.978163 259 92ft 0kts
11-Jul-18 13:15 33.871165 -117.978163 259 92ft 0kts
11-Jul-18 13:22 33.871165 -117.978163 259 92ft 0kts
11-Jul-18 13:23 33.871165 -117.978163 259 92ft 0kts
11-Jul-18 13:24 33.871165 -117.978163 259 92ft 0kts
11-Jul-18 13:25 33.871165 -117.978163 259 92ft 0kts
11-Jul-18 13:26 33.871165 -117.978163 259 92ft 0kts
11-Jul-18 13:27 33.871165 -117.978163 259 92ft 0kts
11-Jul-18 13:28 33.871164 -117.978170 259 92ft 0kts
11-Jul-18 13:29 33.871164 -117.978170 259 92ft 0kts
11-Jul-18 13:30 33.871164 -117.978170 259 92ft 0kts
11-Jul-18 13:31 33.871164 -117.978170 259 92ft 0kts
11-Jul-18 13:32 33.871164 -117.978170 259 92ft 0kts
11-Jul-18 13:33 33.871164 -117.978170 259 92ft 0kts
11-Jul-18 13:34 33.871164 -117.978170 259 92ft 0kts
11-Jul-18 13:35 33.871160 -117.978205 263 92ft 0kts
11-Jul-18 13:36 33.871160 -117.978205 263 92ft 0kts
11-Jul-18 13:37 33.871159 -117.978210 264 92ft 0kts
11-Jul-18 13:38 33.871964 -117.977905 75 92ft 6kts
11-Jul-18 13:39 33.872393 -117.975703 76 95ft 9kts
11-Jul-18 13:40 33.872574 -117.974839 47 95ft 0kts
11-Jul-18 13:41 33.872574 -117.974839 47 95ft 0kts
11-Jul-18 13:42 33.872918 -117.974892 308 95ft 4kts
11-Jul-18 13:43 33.867497 -118.001365 256 1089ft 143kts
11-Jul-18 13:44 33.898803 -118.016554 61 4152ft 201kts
11-Jul-18 13:45 33.893505 -117.930795 77 5136ft 322kts
11-Jul-18 13:46 33.926848 -117.837351 65 6829ft 304kts
11-Jul-18 13:47 33.958473 -117.754346 65 6597ft 248kts
11-Jul-18 13:48 33.985916 -117.683028 64 6599ft 225kts
11-Jul-18 13:49 34.011426 -117.616847 64 6865ft 205kts
11-Jul-18 13:50 34.034652 -117.556561 64 7559ft 196kts
11-Jul-18 13:51 34.063049 -117.482751 64 8854ft 283kts
11-Jul-18 13:52 34.098879 -117.389402 64 10117ft 322kts
11-Jul-18 13:53 34.138165 -117.291060 62 10975ft 346kts
11-Jul-18 13:54 34.175479 -117.191839 66 12474ft 310kts
11-Jul-18 13:55 34.206714 -117.107802 65 12088ft 250kts
11-Jul-18 13:56 34.234142 -117.034997 65 11680ft 230kts
11-Jul-18 13:57 34.259743 -116.967227 65 11532ft 212kts
11-Jul-18 13:58 34.287356 -116.894111 65 11538ft 275kts
11-Jul-18 13:59 34.322024 -116.802150 65 11535ft 319kts
11-Jul-18 14:00 34.359581 -116.702256 65 12068ft 333kts
11-Jul-18 14:01 34.397912 -116.600162 65 12356ft 321kts
11-Jul-18 14:02 34.429125 -116.516348 65 11562ft 213kts
11-Jul-18 14:03 34.453692 -116.450551 65 11594ft 245kts
11-Jul-18 14:04 34.485294 -116.365652 65 11591ft 303kts
11-Jul-18 14:05 34.521192 -116.268907 65 11679ft 326kts
11-Jul-18 14:06 34.556502 -116.173455 65 11588ft 294kts
11-Jul-18 14:07 34.590717 -116.080693 65 11590ft 310kts
11-Jul-18 14:08 34.626683 -115.982894 65 11589ft 324kts
11-Jul-18 14:09 34.663576 -115.882261 65 11723ft 326kts
11-Jul-18 14:10 34.700411 -115.781472 65 11831ft 327kts
11-Jul-18 14:11 34.737386 -115.679981 65 11914ft 328kts
11-Jul-18 14:12 34.774231 -115.578522 65 11979ft 329kts
11-Jul-18 14:13 34.811172 -115.476475 65 12029ft 330kts
11-Jul-18 14:14 34.848028 -115.374337 65 12067ft 330kts
11-Jul-18 14:15 34.884716 -115.272346 66 12098ft 330kts
11-Jul-18 14:16 34.921502 -115.169748 66 12122ft 331kts
11-Jul-18 14:17 34.958219 -115.067007 66 12140ft 331kts
11-Jul-18 14:18 34.994894 -114.964044 66 12155ft 331kts
11-Jul-18 14:19 35.031383 -114.861269 66 12167ft 331kts
11-Jul-18 14:20 35.067879 -114.758139 66 12176ft 331kts
11-Jul-18 14:21 35.104096 -114.655459 66 12184ft 331kts
11-Jul-18 14:22 35.140492 -114.551942 66 12190ft 331kts
11-Jul-18 14:23 35.176685 -114.448659 66 12196ft 331kts
11-Jul-18 14:24 35.212804 -114.345238 67 12200ft 331kts
11-Jul-18 14:25 35.247925 -114.244342 67 12277ft 329kts
11-Jul-18 14:26 35.278240 -114.156972 67 11483ft 248kts
11-Jul-18 14:27 35.303091 -114.085184 67 10305ft 227kts
11-Jul-18 14:28 35.327168 -114.015473 67 9103ft 220kts
11-Jul-18 14:29 35.350725 -113.947111 67 7903ft 217kts
11-Jul-18 14:30 35.372251 -113.884509 67 7681ft 181kts
11-Jul-18 14:31 35.392370 -113.825887 67 7312ft 198kts
11-Jul-18 14:32 35.414915 -113.760065 67 7310ft 219kts
11-Jul-18 14:33 35.440433 -113.685384 67 7310ft 255kts
11-Jul-18 14:34 35.468694 -113.602464 67 7309ft 269kts
11-Jul-18 14:35 35.497940 -113.516418 67 7309ft 277kts
11-Jul-18 14:36 35.527635 -113.428793 67 7309ft 279kts
11-Jul-18 14:37 35.557224 -113.341236 67 7309ft 279kts
11-Jul-18 14:38 35.586978 -113.252942 67 7309ft 280kts
11-Jul-18 14:39 35.616604 -113.164771 67 7309ft 280kts
11-Jul-18 14:40 35.646265 -113.076234 67 7309ft 280kts
11-Jul-18 14:41 35.675775 -112.987888 67 7309ft 280kts
11-Jul-18 14:42 35.705342 -112.899113 67 7309ft 280kts
11-Jul-18 14:43 35.734833 -112.810304 67 7309ft 280kts
11-Jul-18 14:44 35.764117 -112.721857 67 7309ft 280kts
11-Jul-18 14:45 35.793459 -112.632973 67 7309ft 280kts
11-Jul-18 14:46 35.818924 -112.555615 67 7258ft 197kts
11-Jul-18 14:47 35.837818 -112.498090 67 7307ft 170kts
11-Jul-18 14:48 35.854949 -112.445838 67 7308ft 160kts
11-Jul-18 14:49 35.871268 -112.395978 67 7307ft 151kts
11-Jul-18 14:50 35.886474 -112.348994 70 7250ft 149kts
11-Jul-18 14:51 35.900561 -112.301968 67 7229ft 144kts
11-Jul-18 14:52 35.917830 -112.257161 69 7182ft 143kts
11-Jul-18 14:53 35.926235 -112.208859 90 7171ft 131kts
11-Jul-18 14:54 35.928427 -112.172654 50 6791ft 100kts
11-Jul-18 14:55 35.947858 -112.151560 40 6569ft 56kts
11-Jul-18 14:56 35.952006 -112.146539 124 6589ft 5kts
11-Jul-18 14:57 35.952240 -112.145247 41 6596ft 15kts
11-Jul-18 14:58 35.953655 -112.142749 345 6608ft 8kts
11-Jul-18 14:59 35.953700 -112.142788 309 6608ft 0kts
11-Jul-18 15:00 35.953700 -112.142788 309 6608ft 0kts
11-Jul-18 15:01 35.953700 -112.142788 309 6608ft 0kts

Navigation Log

Ident Type
Flight plan parsing failed, navigation log unavailable